createdAt,value
2022-08-28T00:03:22.741Z,3.00
2022-08-28T00:08:43.522Z,3.25
2022-08-28T00:14:06.817Z,3.50
2022-08-28T00:19:28.748Z,3.22
2022-08-28T00:24:49.594Z,2.97
2022-08-28T00:30:10.568Z,2.88
2022-08-28T00:35:31.832Z,3.00
2022-08-28T00:40:56.538Z,2.95
2022-08-28T00:46:20.886Z,2.67
2022-08-28T00:52:00.923Z,2.97
2022-08-28T00:57:27.006Z,2.63
2022-08-28T01:02:48.043Z,2.92
2022-08-28T01:08:09.433Z,3.28
2022-08-28T01:13:32.960Z,2.92
2022-08-28T01:18:55.052Z,3.13
2022-08-28T01:24:18.602Z,3.28
2022-08-28T01:29:39.727Z,2.80
2022-08-28T01:35:01.235Z,2.80
2022-08-28T01:40:36.529Z,3.20
2022-08-28T01:46:04.381Z,3.15
2022-08-28T01:51:24.913Z,3.00
2022-08-28T01:56:46.067Z,3.15
2022-08-28T02:02:07.100Z,3.38
2022-08-28T02:07:28.258Z,3.40
2022-08-28T02:12:49.432Z,3.22
2022-08-28T02:18:11.046Z,3.20
2022-08-28T02:23:32.199Z,2.70
2022-08-28T02:28:53.361Z,2.75
2022-08-28T02:34:14.316Z,1.88
2022-08-28T02:39:35.014Z,3.65
2022-08-28T02:44:56.006Z,3.00
2022-08-28T02:50:18.947Z,2.03
2022-08-28T02:55:39.982Z,2.95
2022-08-28T03:01:03.503Z,2.50
2022-08-28T03:06:24.396Z,2.70
2022-08-28T03:11:45.369Z,2.40
2022-08-28T03:17:07.557Z,2.53
2022-08-28T03:22:51.433Z,2.47
2022-08-28T03:28:12.696Z,2.05
2022-08-28T03:33:34.053Z,2.20
2022-08-28T03:38:58.918Z,2.30
2022-08-28T03:44:19.829Z,2.00
2022-08-28T03:49:40.503Z,2.50
2022-08-28T03:55:01.299Z,2.13
2022-08-28T04:00:22.114Z,2.15
2022-08-28T04:05:44.611Z,2.22
2022-08-28T04:11:06.109Z,2.28
2022-08-28T04:16:27.974Z,2.50
2022-08-28T04:21:48.584Z,2.30
2022-08-28T04:27:09.266Z,2.00
2022-08-28T04:32:30.119Z,1.58
2022-08-28T04:37:50.691Z,1.55
2022-08-28T04:43:12.321Z,1.60
2022-08-28T04:48:33.992Z,1.50
2022-08-28T04:53:54.534Z,1.38
2022-08-28T04:59:15.166Z,1.08
2022-08-28T05:04:35.959Z,1.00
2022-08-28T05:09:57.784Z,1.05
2022-08-28T05:15:18.456Z,0.80
2022-08-28T05:20:41.932Z,1.00
2022-08-28T05:26:03.005Z,1.05
2022-08-28T05:31:25.266Z,1.08
2022-08-28T05:36:46.037Z,1.33
2022-08-28T05:42:07.136Z,0.98
2022-08-28T05:47:28.659Z,1.13
2022-08-28T05:52:49.910Z,1.10
2022-08-28T05:58:29.271Z,1.77
2022-08-28T06:04:02.872Z,1.37
2022-08-28T06:09:29.648Z,1.20
2022-08-28T06:14:50.806Z,1.60
2022-08-28T06:20:11.832Z,1.40
2022-08-28T06:25:38.040Z,1.17
2022-08-28T06:31:23.015Z,1.40
2022-08-28T06:36:43.338Z,1.70
2022-08-28T06:42:05.731Z,1.63
2022-08-28T06:47:27.844Z,1.73
2022-08-28T06:52:48.591Z,1.80
2022-08-28T06:58:10.143Z,1.90
2022-08-28T07:03:30.889Z,1.90
2022-08-28T07:08:52.116Z,1.98
2022-08-28T07:14:13.384Z,2.17
2022-08-28T07:19:34.326Z,2.60
2022-08-28T07:24:56.360Z,2.67
2022-08-28T07:30:17.357Z,3.47
2022-08-28T07:35:38.042Z,2.78
2022-08-28T07:40:58.913Z,3.38
2022-08-28T07:46:20.037Z,2.92
2022-08-28T07:51:40.761Z,2.75
2022-08-28T07:57:05.618Z,4.38
2022-08-28T08:02:26.871Z,3.90
2022-08-28T08:07:47.513Z,2.90
2022-08-28T08:13:08.394Z,5.18
2022-08-28T08:18:29.772Z,3.65
2022-08-28T08:23:50.630Z,2.63
2022-08-28T08:29:13.247Z,2.90
2022-08-28T08:34:43.083Z,3.15
2022-08-28T08:40:07.596Z,2.85
2022-08-28T08:45:32.058Z,2.67
2022-08-28T08:50:53.905Z,3.05
2022-08-28T08:56:17.101Z,2.35
2022-08-28T09:01:47.887Z,2.35
2022-08-28T09:07:27.518Z,2.75
2022-08-28T09:13:12.464Z,2.22
2022-08-28T09:18:34.690Z,2.40
2022-08-28T09:23:58.217Z,1.92
2022-08-28T09:29:24.817Z,2.72
2022-08-28T09:35:02.174Z,3.10
2022-08-28T09:40:27.596Z,3.15
2022-08-28T09:45:56.167Z,2.38
2022-08-28T09:51:20.291Z,2.33
2022-08-28T09:56:42.414Z,2.22
2022-08-28T10:02:38.555Z,2.40
2022-08-28T10:08:06.578Z,2.60
2022-08-28T10:13:35.662Z,2.47
2022-08-28T10:24:29.392Z,2.72
2022-08-28T10:29:53.341Z,2.38
2022-08-28T10:35:42.658Z,2.83
2022-08-28T10:41:19.831Z,2.60
2022-08-28T10:46:44.979Z,2.00
2022-08-28T10:52:11.231Z,2.17
2022-08-28T10:57:57.728Z,2.15
2022-08-28T11:03:34.469Z,2.40
2022-08-28T11:08:58.911Z,3.55
2022-08-28T11:14:48.037Z,2.60
2022-08-28T11:20:29.504Z,2.50
2022-08-28T11:25:58.511Z,2.88
2022-08-28T11:31:29.112Z,2.85
2022-08-28T11:36:50.084Z,2.70
2022-08-28T11:42:10.703Z,2.70
2022-08-28T11:47:41.856Z,3.15
2022-08-28T11:53:42.885Z,3.00
2022-08-28T11:59:14.060Z,2.92
2022-08-28T12:04:42.681Z,3.20
2022-08-28T12:10:23.459Z,2.90
2022-08-28T12:15:44.985Z,2.20
2022-08-28T12:21:13.024Z,2.30
2022-08-28T12:26:38.674Z,2.08
2022-08-28T12:32:21.260Z,2.70
2022-08-28T12:37:58.894Z,2.53
2022-08-28T12:43:46.598Z,2.00
2022-08-28T12:49:37.087Z,2.10
2022-08-28T12:54:58.970Z,2.50
2022-08-28T13:00:26.169Z,1.70
2022-08-28T13:05:57.330Z,1.92
2022-08-28T13:11:20.951Z,2.13
2022-08-28T13:16:48.068Z,1.90
2022-08-28T13:22:38.961Z,2.28
2022-08-28T13:28:15.172Z,2.40
2022-08-28T13:33:36.082Z,2.25
2022-08-28T13:38:57.098Z,2.08
2022-08-28T13:44:27.077Z,2.33
2022-08-28T13:49:49.129Z,2.10
2022-08-28T13:55:10.151Z,2.10
2022-08-28T14:00:36.051Z,2.30
2022-08-28T14:05:57.064Z,2.00
2022-08-28T14:11:17.844Z,2.08
2022-08-28T14:16:39.974Z,2.13
2022-08-28T14:22:01.055Z,2.17
2022-08-28T14:27:22.311Z,2.70
2022-08-28T14:32:43.481Z,1.90
2022-08-28T14:38:04.612Z,3.17
2022-08-28T14:43:25.076Z,2.30
2022-08-28T14:48:46.107Z,2.00
2022-08-28T14:54:09.465Z,2.20
2022-08-28T14:59:32.350Z,2.60
2022-08-28T15:04:53.139Z,2.22
2022-08-28T15:10:13.995Z,2.05
2022-08-28T15:15:36.599Z,1.95
2022-08-28T15:20:58.359Z,2.00
2022-08-28T15:26:20.845Z,2.20
2022-08-28T15:31:44.543Z,2.20
2022-08-28T15:37:07.859Z,2.20
2022-08-28T15:42:29.879Z,2.10
2022-08-28T15:47:50.598Z,2.05
2022-08-28T15:53:11.435Z,2.45
2022-08-28T15:58:32.179Z,2.38
2022-08-28T16:03:53.468Z,2.20
2022-08-28T16:09:14.521Z,2.20
2022-08-28T16:14:35.408Z,2.30
2022-08-28T16:19:56.090Z,2.60
2022-08-28T16:25:17.000Z,2.50
2022-08-28T16:30:43.967Z,2.40
2022-08-28T16:36:08.540Z,2.38
2022-08-28T16:41:29.343Z,2.53
2022-08-28T16:46:54.355Z,2.90
2022-08-28T16:52:14.981Z,2.75
2022-08-28T16:57:36.429Z,3.28
2022-08-28T17:02:57.830Z,3.40
2022-08-28T17:08:18.824Z,3.17
2022-08-28T17:13:40.207Z,2.95
2022-08-28T17:19:01.201Z,3.50
2022-08-28T17:24:22.594Z,3.10
2022-08-28T17:29:44.141Z,3.35
2022-08-28T17:35:05.563Z,3.00
2022-08-28T17:40:27.353Z,2.63
2022-08-28T17:45:48.487Z,2.80
2022-08-28T17:51:09.282Z,2.53
2022-08-28T17:56:35.909Z,3.35
2022-08-28T18:01:56.873Z,3.28
2022-08-28T18:07:18.218Z,2.55
2022-08-28T18:12:41.284Z,3.05
2022-08-28T18:18:02.679Z,3.30
2022-08-28T18:23:23.560Z,2.88
2022-08-28T18:28:44.879Z,3.17
2022-08-28T18:34:08.603Z,3.13
2022-08-28T18:39:33.551Z,3.60
2022-08-28T18:44:54.264Z,3.00
2022-08-28T18:50:15.142Z,3.10
2022-08-28T18:55:37.575Z,3.20
2022-08-28T19:00:58.513Z,3.60
2022-08-28T19:06:19.034Z,3.67
2022-08-28T19:11:39.984Z,3.17
2022-08-28T19:17:01.146Z,3.20
2022-08-28T19:22:22.976Z,3.08
2022-08-28T19:27:44.678Z,3.28
2022-08-28T19:33:06.015Z,3.38
2022-08-28T19:38:30.787Z,2.90
2022-08-28T19:43:51.727Z,3.20
2022-08-28T19:49:13.998Z,2.67
2022-08-28T19:54:40.781Z,3.28
2022-08-28T20:00:02.501Z,3.13
2022-08-28T20:05:27.278Z,2.85
2022-08-28T20:10:47.902Z,3.28
2022-08-28T20:16:10.948Z,2.78
2022-08-28T20:21:37.302Z,2.45
2022-08-28T20:26:58.986Z,2.80
2022-08-28T20:32:20.147Z,2.60
2022-08-28T20:37:44.951Z,2.70
2022-08-28T20:43:06.980Z,3.05
2022-08-28T20:48:28.516Z,2.90
2022-08-28T20:53:52.295Z,2.60
2022-08-28T20:59:13.080Z,2.75
2022-08-28T21:04:37.028Z,3.05
2022-08-28T21:10:06.341Z,2.55
2022-08-28T21:15:29.063Z,2.70
2022-08-28T21:20:50.794Z,2.80
2022-08-28T21:26:12.082Z,2.67
2022-08-28T21:31:33.697Z,3.03
2022-08-28T21:36:54.479Z,2.50
2022-08-28T21:42:15.155Z,2.78
2022-08-28T21:47:35.928Z,2.83
2022-08-28T21:52:56.821Z,3.05
2022-08-28T21:58:18.650Z,2.85
2022-08-28T22:03:41.316Z,3.08
2022-08-28T22:09:02.631Z,3.58
2022-08-28T22:14:25.297Z,3.08
2022-08-28T22:19:46.772Z,3.58
2022-08-28T22:25:08.298Z,3.60
2022-08-28T22:30:29.541Z,3.40
2022-08-28T22:35:51.236Z,3.95
2022-08-28T22:41:12.826Z,3.92
2022-08-28T22:46:33.527Z,3.78
2022-08-28T22:51:54.259Z,3.33
2022-08-28T22:57:15.152Z,3.17
2022-08-28T23:02:35.809Z,4.38
2022-08-28T23:07:57.060Z,3.40
2022-08-28T23:13:19.557Z,3.47
2022-08-28T23:19:06.424Z,4.43
2022-08-28T23:24:21.166Z,4.20
2022-08-28T23:29:41.948Z,4.90
2022-08-28T23:35:02.808Z,4.93
2022-08-28T23:40:28.314Z,4.13
2022-08-28T23:45:50.555Z,5.28
2022-08-28T23:51:13.197Z,4.50
2022-08-28T23:56:34.980Z,5.05
